Time;durP1;ratioP1;P1;durP2;ratioP2;P2;SDS_P1;SDS_P2;PMS_P1;PMS_P2;Temp;Humidity;BMP_temperature;BMP_pressure;BME280_temperature;BME280_humidity;BME280_pressure;Samples;Min_cycle;Max_cycle;Signal;HPM_P1;HPM_P2
2022/04/26 03:36:46;;;;;;;37.6;45.8;;;;;;;8.4;84.2;98370;;;;
2022/04/26 03:47:46;;;;;;;37.6;45.8;;;;;;;8.4;84.1;98370;;;;
2022/04/26 03:57:46;;;;;;;36;44.7;;;;;;;8.4;84.3;98390;;;;
2022/04/26 04:08:46;;;;;;;36;44.7;;;;;;;8.5;84.3;98410;;;;
2022/04/26 04:19:18;;;;;;;36;44.7;;;;;;;8.4;84.2;98420;;;;
2022/04/26 04:28:46;;;;;;;33.8;41.2;;;;;;;8.3;84;98430;;;;
2022/04/26 04:38:46;;;;;;;33.8;41.2;;;;;;;8.3;84.1;98440;;;;
2022/04/26 04:48:46;;;;;;;33.8;41.2;;;;;;;8.3;84.1;98440;;;;
2022/04/26 04:59:46;;;;;;;27.1;30.9;;;;;;;8.3;84.3;98450;;;;
2022/04/26 05:09:46;;;;;;;27.1;30.9;;;;;;;8.4;83.5;98460;;;;
2022/04/26 05:20:46;;;;;;;27.1;30.9;;;;;;;8.5;83.2;98470;;;;
2022/04/26 05:31:46;;;;;;;29.1;34.3;;;;;;;8.7;83;98490;;;;
2022/04/26 05:42:46;;;;;;;29.1;34.3;;;;;;;8.8;83.1;98500;;;;
2022/04/26 05:53:46;;;;;;;34.1;40.9;;;;;;;8.8;82.3;98510;;;;
2022/04/26 06:03:47;;;;;;;34.1;40.9;;;;;;;8.9;82.4;98520;;;;
2022/04/26 06:14:46;;;;;;;34.1;40.9;;;;;;;9.3;81.9;98530;;;;
2022/04/26 06:25:46;;;;;;;33.7;42.1;;;;;;;9.5;80.3;98530;;;;
2022/04/26 06:35:46;;;;;;;33.7;42.1;;;;;;;9.3;79.6;98540;;;;
2022/04/26 06:46:46;;;;;;;33.7;42.1;;;;;;;9.3;79;98530;;;;
2022/04/26 06:57:46;;;;;;;29.1;35.3;;;;;;;9.5;77.6;98540;;;;
2022/04/26 07:07:48;;;;;;;29.1;35.3;;;;;;;9.6;77.5;98550;;;;
2022/04/26 07:17:46;;;;;;;29.1;35.3;;;;;;;9.8;77;98560;;;;
2022/04/26 07:28:46;;;;;;;31.3;40.1;;;;;;;10.3;76.8;98570;;;;
2022/04/26 07:38:46;;;;;;;31.3;40.1;;;;;;;10.4;74.7;98570;;;;
2022/04/26 07:49:47;;;;;;;31.3;40.1;;;;;;;11;73.2;98580;;;;
2022/04/26 07:59:47;;;;;;;31.1;38.4;;;;;;;11.7;71.5;98570;;;;
2022/04/26 08:10:46;;;;;;;31.1;38.4;;;;;;;12.1;68.8;98590;;;;
2022/04/26 08:20:47;;;;;;;31.1;38.4;;;;;;;12.4;65.3;98600;;;;
2022/04/26 08:31:46;;;;;;;20.7;23.8;;;;;;;12.9;63.4;98610;;;;
2022/04/26 08:42:48;;;;;;;20.7;23.8;;;;;;;13.1;63.4;98620;;;;
2022/04/26 08:53:47;;;;;;;17.6;20.7;;;;;;;13.6;62.5;98620;;;;
2022/04/26 09:03:54;;;;;;;17.6;20.7;;;;;;;13.3;64.3;98620;;;;
2022/04/26 09:14:48;;;;;;;17.6;20.7;;;;;;;13.7;61.2;98630;;;;
2022/04/26 09:25:47;;;;;;;19.8;23.7;;;;;;;13.5;61;98630;;;;
2022/04/26 09:35:47;;;;;;;19.8;23.7;;;;;;;13.6;60.6;98630;;;;
2022/04/26 09:46:47;;;;;;;19.8;23.7;;;;;;;13.8;60.1;98630;;;;
2022/04/26 09:57:47;;;;;;;17.2;20.4;;;;;;;13.9;60;98630;;;;
2022/04/26 10:08:47;;;;;;;17.2;20.4;;;;;;;13.7;60.7;98620;;;;
2022/04/26 10:19:47;;;;;;;17.2;20.4;;;;;;;14.3;59.8;98620;;;;
2022/04/26 10:30:46;;;;;;;16.2;19.1;;;;;;;14;57.9;98630;;;;
2022/04/26 10:40:46;;;;;;;16.2;19.1;;;;;;;13.6;58.4;98630;;;;
2022/04/26 10:50:47;;;;;;;16.2;19.1;;;;;;;13.6;58.6;98640;;;;
2022/04/26 11:00:47;;;;;;;14.1;18.2;;;;;;;13.6;59.6;98630;;;;
2022/04/26 11:11:47;;;;;;;14.1;18.2;;;;;;;13.6;57.4;98630;;;;
2022/04/26 11:22:47;;;;;;;13;18.3;;;;;;;13.1;59.4;98640;;;;
2022/04/26 11:32:48;;;;;;;13;18.3;;;;;;;13.3;57.9;98650;;;;
2022/04/26 11:42:47;;;;;;;13;18.3;;;;;;;13.6;58.7;98650;;;;
2022/04/26 11:53:48;;;;;;;11.6;14.6;;;;;;;13.4;59.4;98650;;;;
2022/04/26 12:04:47;;;;;;;11.6;14.6;;;;;;;13.6;60.3;98650;;;;
2022/04/26 12:14:47;;;;;;;11.6;14.6;;;;;;;13.7;60.8;98650;;;;
2022/04/26 12:25:47;;;;;;;15.9;21.8;;;;;;;13.8;59.4;98650;;;;
2022/04/26 12:35:48;;;;;;;15.9;21.8;;;;;;;13.6;58.7;98650;;;;
2022/04/26 12:46:47;;;;;;;15.9;21.8;;;;;;;13.7;57.1;98650;;;;
2022/04/26 12:56:47;;;;;;;11.2;15.4;;;;;;;13.3;57.9;98640;;;;
2022/04/26 13:06:48;;;;;;;11.2;15.4;;;;;;;13.6;59.2;98650;;;;
2022/04/26 13:17:47;;;;;;;11.2;15.4;;;;;;;13.6;61.1;98650;;;;
2022/04/26 13:27:48;;;;;;;13.5;17.5;;;;;;;13.9;59.8;98650;;;;
2022/04/26 13:37:47;;;;;;;13.5;17.5;;;;;;;13.9;59.3;98650;;;;
2022/04/26 13:47:47;;;;;;;13.5;17.5;;;;;;;14;58.9;98660;;;;
2022/04/26 13:58:47;;;;;;;15.3;18.9;;;;;;;14.1;59.2;98660;;;;
2022/04/26 14:08:49;;;;;;;15.3;18.9;;;;;;;13.9;59.6;98660;;;;
2022/04/26 14:30:47;;;;;;;15.4;19.9;;;;;;;13.7;59.1;98660;;;;
2022/04/26 14:41:47;;;;;;;15.4;19.9;;;;;;;13.6;59.2;98660;;;;
2022/04/26 14:51:47;;;;;;;15.4;19.4;;;;;;;13.5;59.9;98660;;;;
2022/04/26 15:01:49;;;;;;;15.4;19.4;;;;;;;13.1;61.3;98660;;;;
2022/04/26 15:11:47;;;;;;;15.4;19.4;;;;;;;13.2;60.8;98650;;;;
2022/04/26 15:22:47;;;;;;;14.7;18.4;;;;;;;13;60.1;98660;;;;
2022/04/26 15:32:47;;;;;;;14.7;18.4;;;;;;;12.9;60.3;98660;;;;
2022/04/26 15:43:47;;;;;;;14.7;18.4;;;;;;;12.8;59.5;98670;;;;
2022/04/26 15:53:47;;;;;;;11.7;14.8;;;;;;;13.1;59.6;98670;;;;
2022/04/26 16:04:47;;;;;;;11.7;14.8;;;;;;;13.2;58.7;98680;;;;
2022/04/26 16:25:47;;;;;;;12.1;16.6;;;;;;;13.2;58.5;98680;;;;
2022/04/26 16:35:47;;;;;;;12.1;16.6;;;;;;;13.1;58.9;98690;;;;
2022/04/26 16:45:48;;;;;;;12.1;16.6;;;;;;;12.5;60.7;98690;;;;
2022/04/26 16:56:47;;;;;;;10.2;16.2;;;;;;;11.7;62.9;98690;;;;
2022/04/26 17:07:47;;;;;;;10.2;16.2;;;;;;;11.6;63.6;98700;;;;
2022/04/26 17:17:47;;;;;;;10.2;16.2;;;;;;;11.3;64.9;98710;;;;
2022/04/26 17:27:48;;;;;;;27.5;32.6;;;;;;;11;65.1;98720;;;;
2022/04/26 17:37:47;;;;;;;27.5;32.6;;;;;;;10.5;68;98730;;;;
2022/04/26 17:47:47;;;;;;;27.5;32.6;;;;;;;10.2;67.8;98730;;;;
2022/04/26 17:58:47;;;;;;;22.7;27.2;;;;;;;10.1;67.8;98750;;;;
2022/04/26 18:08:47;;;;;;;22.7;27.2;;;;;;;9.8;69;98760;;;;
2022/04/26 18:18:47;;;;;;;22.7;27.2;;;;;;;9.8;68.6;98770;;;;
2022/04/26 18:29:49;;;;;;;12.9;19.1;;;;;;;-133;79.3;78510;;;;
2022/04/26 18:40:47;;;;;;;12.9;19.1;;;;;;;-133;80.1;78540;;;;
2022/04/26 18:51:47;;;;;;;20.3;27.3;;;;;;;-133;80.8;78560;;;;
2022/04/26 19:01:47;;;;;;;16.6;20.7;;;;;;;-133;83.4;78590;;;;
2022/04/26 19:12:47;;;;;;;21.9;27.6;;;;;;;-133;83;78620;;;;
2022/04/26 19:23:48;;;;;;;21.9;27.6;;;;;;;-133;83;78660;;;;
2022/04/26 19:33:47;;;;;;;21.9;27.6;;;;;;;-133;84.6;78680;;;;
2022/04/26 19:43:47;;;;;;;21.7;25.4;;;;;;;-133;85.9;78700;;;;
2022/04/26 19:54:47;;;;;;;21.7;25.4;;;;;;;-133;86.8;78710;;;;
2022/04/26 20:04:47;;;;;;;21.7;25.4;;;;;;;-133;87.6;78730;;;;
2022/04/26 20:14:47;;;;;;;20.9;26.2;;;;;;;-133;89.5;78750;;;;
2022/04/26 20:24:47;;;;;;;20.9;26.2;;;;;;;-133;89.3;78800;;;;
2022/04/26 20:35:47;;;;;;;20.9;26.2;;;;;;;-133;90.5;78840;;;;
2022/04/26 20:45:48;;;;;;;26;32.5;;;;;;;-133;90.4;78870;;;;
2022/04/26 20:56:47;;;;;;;26;32.5;;;;;;;-133;90.4;78910;;;;
2022/04/26 21:06:48;;;;;;;26;32.5;;;;;;;-133;91.4;78950;;;;
2022/04/26 21:16:47;;;;;;;25;31;;;;;;;-133;92.7;78980;;;;
2022/04/26 21:27:47;;;;;;;25;31;;;;;;;-133;93;79010;;;;
2022/04/26 21:38:47;;;;;;;25;31;;;;;;;-133;94.5;79040;;;;
2022/04/26 21:59:47;;;;;;;31.4;35.9;;;;;;;-133;95.7;79090;;;;
2022/04/26 22:09:47;;;;;;;31.4;35.9;;;;;;;-133;98.5;79100;;;;
2022/04/26 22:20:47;;;;;;;34.9;40.1;;;;;;;-133;99.8;79120;;;;
2022/04/26 22:30:47;;;;;;;34.9;40.1;;;;;;;-133;100;79130;;;;
2022/04/26 22:41:47;;;;;;;42;47;;;;;;;-133;100;79140;;;;
2022/04/26 22:51:47;;;;;;;42;47;;;;;;;-133;100;79160;;;;
2022/04/26 23:02:47;;;;;;;42;47;;;;;;;-133;100;79170;;;;
2022/04/26 23:13:48;;;;;;;39.6;49;;;;;;;-133;100;79200;;;;
2022/04/26 23:23:47;;;;;;;39.6;49;;;;;;;-133;100;79200;;;;
2022/04/26 23:43:47;;;;;;;36.5;43.1;;;;;;;-133;100;79230;;;;
2022/04/26 23:54:47;;;;;;;36.5;43.1;;;;;;;-133;100;79250;;;;
